createdAt,value
2022-09-26T00:00:18.226Z,65.14
2022-09-26T00:02:51.507Z,64.54
2022-09-26T00:05:04.870Z,64.34
2022-09-26T00:07:18.214Z,64.04
2022-09-26T00:09:32.304Z,63.78
2022-09-26T00:11:45.771Z,64.32
2022-09-26T00:14:01.452Z,63.67
2022-09-26T00:16:16.840Z,63.83
2022-09-26T00:18:30.412Z,63.79
2022-09-26T00:20:45.161Z,64.18
2022-09-26T00:22:58.435Z,64.55
2022-09-26T00:25:14.036Z,64.22
2022-09-26T00:27:27.287Z,64.36
2022-09-26T00:29:40.511Z,64.33
2022-09-26T00:31:54.870Z,64.44
2022-09-26T00:34:08.616Z,64.19
2022-09-26T00:36:29.670Z,64.05
2022-09-26T00:38:50.466Z,64.28
2022-09-26T00:41:04.013Z,65.30
2022-09-26T00:43:33.742Z,65.63
2022-09-26T00:45:47.716Z,64.85
2022-09-26T00:48:05.047Z,65.04
2022-09-26T00:50:24.201Z,65.18
2022-09-26T00:52:40.330Z,65.64
2022-09-26T00:54:57.983Z,64.66
2022-09-26T00:57:16.064Z,65.02
2022-09-26T00:59:32.146Z,65.62
2022-09-26T01:01:46.375Z,66.21
2022-09-26T01:04:00.996Z,66.72
2022-09-26T01:06:15.236Z,66.71
2022-09-26T01:08:35.379Z,66.47
2022-09-26T01:10:48.873Z,66.39
2022-09-26T01:13:03.394Z,66.34
2022-09-26T01:15:17.460Z,66.39
2022-09-26T01:17:31.454Z,66.45
2022-09-26T01:20:02.826Z,66.53
2022-09-26T01:22:49.339Z,66.86
2022-09-26T01:25:22.285Z,67.37
2022-09-26T01:28:09.992Z,67.39
2022-09-26T01:30:27.831Z,67.64
2022-09-26T01:32:56.903Z,67.65
2022-09-26T01:35:20.873Z,67.99
2022-09-26T01:37:43.808Z,68.35
2022-09-26T01:40:07.301Z,68.40
2022-09-26T01:42:29.876Z,68.61
2022-09-26T01:44:45.307Z,68.90
2022-09-26T01:47:05.472Z,69.04
2022-09-26T01:49:22.931Z,69.48
2022-09-26T01:51:42.721Z,69.61
2022-09-26T01:53:59.975Z,69.48
2022-09-26T01:56:17.773Z,69.62
2022-09-26T01:58:36.965Z,69.93
2022-09-26T02:00:54.042Z,70.29
2022-09-26T02:03:09.553Z,70.50
2022-09-26T02:05:30.499Z,70.40
2022-09-26T02:07:48.028Z,70.48
2022-09-26T02:10:05.470Z,70.42
2022-09-26T02:12:34.062Z,70.49
2022-09-26T02:14:51.460Z,70.48
2022-09-26T02:17:09.803Z,70.67
2022-09-26T02:19:26.974Z,70.64
2022-09-26T02:21:40.842Z,70.58
2022-09-26T02:23:56.343Z,70.56
2022-09-26T02:26:10.422Z,70.57
2022-09-26T02:28:24.632Z,70.47
2022-09-26T02:30:38.648Z,70.43
2022-09-26T02:32:52.558Z,70.53
2022-09-26T02:35:37.919Z,70.62
2022-09-26T02:37:51.269Z,70.81
2022-09-26T02:40:05.179Z,70.86
2022-09-26T02:42:29.587Z,70.96
2022-09-26T02:44:54.786Z,71.02
2022-09-26T02:47:26.669Z,70.97
2022-09-26T02:50:04.357Z,70.95
2022-09-26T02:52:33.738Z,70.99
2022-09-26T02:54:57.069Z,70.89
2022-09-26T02:57:30.087Z,70.98
2022-09-26T02:59:46.840Z,71.10
2022-09-26T03:02:08.930Z,71.12
2022-09-26T03:04:33.791Z,71.21
2022-09-26T03:06:51.333Z,71.31
2022-09-26T03:09:06.955Z,71.41
2022-09-26T03:11:27.539Z,71.47
2022-09-26T03:13:44.037Z,71.23
2022-09-26T03:16:00.019Z,71.20
2022-09-26T03:18:18.321Z,71.35
2022-09-26T03:20:32.644Z,71.57
2022-09-26T03:22:46.972Z,71.62
2022-09-26T03:25:01.943Z,71.74
2022-09-26T03:27:20.094Z,71.89
2022-09-26T03:29:35.448Z,71.89
2022-09-26T03:31:51.549Z,71.88
2022-09-26T03:34:05.528Z,71.68
2022-09-26T03:36:18.915Z,71.83
2022-09-26T03:38:32.399Z,71.93
2022-09-26T03:40:56.979Z,71.90
2022-09-26T03:43:44.929Z,71.74
2022-09-26T03:45:58.534Z,71.92
2022-09-26T03:48:12.728Z,72.08
2022-09-26T03:50:26.224Z,72.11
2022-09-26T03:52:39.642Z,72.04
2022-09-26T03:54:54.434Z,71.98
2022-09-26T03:57:07.957Z,71.92
2022-09-26T03:59:24.233Z,72.23
2022-09-26T04:01:37.781Z,72.37
2022-09-26T04:03:52.757Z,72.50
2022-09-26T04:06:06.504Z,72.55
2022-09-26T04:08:19.927Z,72.66
2022-09-26T04:10:34.479Z,72.69
2022-09-26T04:12:48.653Z,72.63
2022-09-26T04:15:02.489Z,72.70
2022-09-26T04:17:18.001Z,72.59
2022-09-26T04:19:33.260Z,72.62
2022-09-26T04:21:46.933Z,72.68
2022-09-26T04:24:01.337Z,72.93
2022-09-26T04:26:21.733Z,73.19
2022-09-26T04:28:36.589Z,73.15
2022-09-26T04:30:50.748Z,73.09
2022-09-26T04:33:04.701Z,73.10
2022-09-26T04:35:18.063Z,73.22
2022-09-26T04:37:31.587Z,73.32
2022-09-26T04:39:44.993Z,73.38
2022-09-26T04:41:59.147Z,73.38
2022-09-26T04:44:13.995Z,73.40
2022-09-26T04:46:30.911Z,73.49
2022-09-26T04:48:45.516Z,73.52
2022-09-26T04:51:03.203Z,73.68
2022-09-26T04:53:16.415Z,73.72
2022-09-26T04:55:36.397Z,73.72
2022-09-26T04:57:52.153Z,73.80
2022-09-26T05:00:06.015Z,73.85
2022-09-26T05:02:21.426Z,73.93
2022-09-26T05:04:34.734Z,74.00
2022-09-26T05:06:48.249Z,73.95
2022-09-26T05:09:10.198Z,73.98
2022-09-26T05:11:31.307Z,73.98
2022-09-26T05:13:45.155Z,74.11
2022-09-26T05:15:59.498Z,74.08
2022-09-26T05:18:13.707Z,74.08
2022-09-26T05:20:30.273Z,74.36
2022-09-26T05:22:46.016Z,74.54
2022-09-26T05:25:16.014Z,74.77
2022-09-26T05:27:29.693Z,74.97
2022-09-26T05:29:42.858Z,74.93
2022-09-26T05:31:57.643Z,75.09
2022-09-26T05:34:19.494Z,75.08
2022-09-26T05:36:33.971Z,75.23
2022-09-26T05:38:47.359Z,75.32
2022-09-26T05:41:02.031Z,75.42
2022-09-26T05:43:15.367Z,75.50
2022-09-26T05:45:28.917Z,75.53
2022-09-26T05:47:43.687Z,75.58
2022-09-26T05:49:57.803Z,75.66
2022-09-26T05:52:11.502Z,75.80
2022-09-26T05:54:25.402Z,75.78
2022-09-26T05:56:39.856Z,75.84
2022-09-26T05:59:13.006Z,75.96
2022-09-26T06:01:44.617Z,75.91
2022-09-26T06:04:04.065Z,75.82
2022-09-26T06:06:23.487Z,75.91
2022-09-26T06:08:42.279Z,76.05
2022-09-26T06:11:09.478Z,76.11
2022-09-26T06:13:22.962Z,76.02
2022-09-26T06:15:37.495Z,76.13
2022-09-26T06:17:51.358Z,76.10
2022-09-26T06:20:04.746Z,76.23
2022-09-26T06:22:18.792Z,76.35
2022-09-26T06:24:33.901Z,76.55
2022-09-26T06:26:48.908Z,76.62
2022-09-26T06:29:02.959Z,76.69
2022-09-26T06:31:23.269Z,76.85
2022-09-26T06:33:58.390Z,76.94
2022-09-26T06:36:30.697Z,77.01
2022-09-26T06:38:44.142Z,77.13
2022-09-26T06:41:02.094Z,77.06
2022-09-26T06:43:15.698Z,77.11
2022-09-26T06:45:50.240Z,77.05
2022-09-26T06:48:13.127Z,77.02
2022-09-26T06:50:43.153Z,77.01
2022-09-26T06:52:56.479Z,76.91
2022-09-26T06:55:12.459Z,77.02
2022-09-26T06:57:26.017Z,77.15
2022-09-26T06:59:40.275Z,77.28
2022-09-26T07:02:05.378Z,77.39
2022-09-26T07:04:37.080Z,77.69
2022-09-26T07:06:53.217Z,77.77
2022-09-26T07:09:15.062Z,77.80
2022-09-26T07:12:09.420Z,77.88
2022-09-26T07:14:12.080Z,77.87
2022-09-26T07:16:25.629Z,78.02
2022-09-26T07:18:57.497Z,77.94
2022-09-26T07:21:46.474Z,78.15
2022-09-26T07:24:19.911Z,78.29
2022-09-26T07:26:33.322Z,78.17
2022-09-26T07:28:50.817Z,78.18
2022-09-26T07:31:07.313Z,78.16
2022-09-26T07:33:26.970Z,78.20
2022-09-26T07:35:45.626Z,78.32
2022-09-26T07:37:59.772Z,78.17
2022-09-26T07:40:15.506Z,78.15
2022-09-26T07:42:29.113Z,78.49
2022-09-26T07:47:32.433Z,78.65
2022-09-26T07:50:04.097Z,78.53
2022-09-26T07:52:37.491Z,78.85
2022-09-26T07:55:15.198Z,78.87
2022-09-26T07:57:49.591Z,79.00
2022-09-26T08:00:32.829Z,79.01
2022-09-26T08:03:06.075Z,79.07
2022-09-26T08:05:23.506Z,79.04
2022-09-26T08:07:38.470Z,79.16
2022-09-26T08:10:19.702Z,79.17
2022-09-26T08:12:59.920Z,79.30
2022-09-26T08:15:49.045Z,79.48
2022-09-26T08:18:10.030Z,79.53
2022-09-26T08:20:25.433Z,79.54
2022-09-26T08:22:41.964Z,79.71
2022-09-26T08:24:58.110Z,79.50
2022-09-26T08:27:28.211Z,79.56
2022-09-26T08:29:43.493Z,79.50
2022-09-26T08:31:56.970Z,79.41
2022-09-26T08:34:11.118Z,79.50
2022-09-26T08:36:24.380Z,79.38
2022-09-26T08:38:58.042Z,79.45
2022-09-26T08:42:04.773Z,79.60
2022-09-26T08:44:55.904Z,79.68
2022-09-26T08:47:44.033Z,79.79
2022-09-26T08:50:21.711Z,79.72
2022-09-26T08:52:44.005Z,79.83
2022-09-26T08:54:59.132Z,79.97
2022-09-26T08:57:29.597Z,79.86
2022-09-26T08:59:46.674Z,79.75
2022-09-26T09:02:08.263Z,79.72
2022-09-26T09:04:42.151Z,79.76
2022-09-26T09:07:01.864Z,79.93
2022-09-26T09:09:19.281Z,80.06
2022-09-26T09:12:08.688Z,80.23
2022-09-26T09:14:33.850Z,80.42
2022-09-26T09:16:58.900Z,80.40
2022-09-26T09:19:39.558Z,80.56
2022-09-26T09:22:36.656Z,80.65
2022-09-26T09:25:04.556Z,80.57
2022-09-26T09:30:17.113Z,80.57
2022-09-26T09:32:43.171Z,80.39
2022-09-26T09:35:22.721Z,80.60
2022-09-26T09:37:57.298Z,80.63
2022-09-26T09:40:33.973Z,80.46
2022-09-26T09:42:52.985Z,80.48
2022-09-26T09:45:09.149Z,80.33
2022-09-26T09:47:24.288Z,80.47
2022-09-26T09:49:38.839Z,80.68
2022-09-26T09:52:03.572Z,80.81
2022-09-26T09:54:43.578Z,80.67
2022-09-26T09:57:08.221Z,80.71
2022-09-26T09:59:44.330Z,80.76
2022-09-26T10:02:03.669Z,80.90
2022-09-26T10:04:36.069Z,81.04
2022-09-26T10:06:47.965Z,81.15
2022-09-26T10:09:35.928Z,81.40
2022-09-26T10:12:01.913Z,81.33
2022-09-26T10:14:34.664Z,81.22
2022-09-26T10:17:15.713Z,81.39
2022-09-26T10:19:43.433Z,81.40
2022-09-26T10:21:57.380Z,81.64
2022-09-26T10:24:25.247Z,81.62
2022-09-26T10:26:48.432Z,81.72
2022-09-26T10:29:25.224Z,81.88
2022-09-26T10:31:43.060Z,81.99
2022-09-26T10:34:06.742Z,82.37
2022-09-26T10:36:25.036Z,82.61
2022-09-26T10:39:12.262Z,82.82
2022-09-26T10:41:30.606Z,83.11
2022-09-26T10:43:55.232Z,83.32
2022-09-26T10:46:28.358Z,83.62
2022-09-26T10:49:03.410Z,83.99
2022-09-26T10:51:42.705Z,84.36
2022-09-26T10:53:58.550Z,84.49
2022-09-26T10:56:18.175Z,84.58
2022-09-26T10:58:33.645Z,84.51
2022-09-26T11:00:51.748Z,84.40
2022-09-26T11:03:07.787Z,84.36
2022-09-26T11:05:41.527Z,84.03
2022-09-26T11:08:02.870Z,83.70
2022-09-26T11:10:37.550Z,83.61
2022-09-26T11:13:07.174Z,83.58
2022-09-26T11:15:21.585Z,83.67
2022-09-26T11:17:51.913Z,83.68
2022-09-26T11:20:10.684Z,83.74
2022-09-26T11:22:28.517Z,83.91
2022-09-26T11:24:49.891Z,84.05
2022-09-26T11:27:15.255Z,84.01
2022-09-26T11:29:37.384Z,84.24
2022-09-26T11:32:00.055Z,84.72
2022-09-26T11:34:38.199Z,84.52
2022-09-26T11:37:14.609Z,84.44
2022-09-26T11:39:43.594Z,84.42
2022-09-26T11:42:10.592Z,84.76
2022-09-26T11:44:46.885Z,85.06
2022-09-26T11:47:22.347Z,85.24
2022-09-26T11:49:57.324Z,85.46
2022-09-26T11:52:48.369Z,85.55
2022-09-26T11:55:15.735Z,85.69
2022-09-26T11:57:43.200Z,85.62
2022-09-26T12:00:11.466Z,85.66
2022-09-26T12:02:58.556Z,85.36
2022-09-26T12:05:33.671Z,85.50
2022-09-26T12:07:52.298Z,85.60
2022-09-26T12:10:18.557Z,85.48
2022-09-26T12:12:43.105Z,85.52
2022-09-26T12:15:10.887Z,85.54
2022-09-26T12:17:28.760Z,85.64
2022-09-26T12:19:47.367Z,85.56
2022-09-26T12:22:25.743Z,85.77
2022-09-26T12:24:46.438Z,85.86
2022-09-26T12:27:08.133Z,85.86
2022-09-26T12:29:42.244Z,86.11
2022-09-26T12:32:10.721Z,86.05
2022-09-26T12:34:42.403Z,86.23
2022-09-26T12:37:05.635Z,86.39
2022-09-26T12:39:32.453Z,86.40
2022-09-26T12:42:09.596Z,86.43
2022-09-26T12:44:40.097Z,86.48
2022-09-26T12:47:08.554Z,86.57
2022-09-26T12:49:46.266Z,86.60
2022-09-26T12:52:05.429Z,86.82
2022-09-26T12:54:37.734Z,86.90
2022-09-26T12:57:06.173Z,86.85
2022-09-26T12:59:38.359Z,86.69
2022-09-26T13:02:18.151Z,86.50
2022-09-26T13:04:54.109Z,86.49
2022-09-26T13:07:20.058Z,86.42
2022-09-26T13:09:49.231Z,86.39
2022-09-26T13:12:18.075Z,86.35
2022-09-26T13:14:46.339Z,86.48
2022-09-26T13:17:12.705Z,86.49
2022-09-26T13:19:32.905Z,86.46
2022-09-26T13:21:52.280Z,86.67
2022-09-26T13:24:10.875Z,86.81
2022-09-26T13:26:30.207Z,86.87
2022-09-26T13:29:06.333Z,86.94
2022-09-26T13:31:24.205Z,86.90
2022-09-26T13:33:42.035Z,87.12
2022-09-26T13:35:59.268Z,87.33
2022-09-26T13:38:26.457Z,87.41
2022-09-26T13:40:48.416Z,87.59
2022-09-26T13:43:11.390Z,87.74
2022-09-26T13:45:33.516Z,87.90
2022-09-26T13:47:54.962Z,87.92
2022-09-26T13:50:24.486Z,88.03
2022-09-26T13:52:48.021Z,88.20
2022-09-26T13:55:06.568Z,88.34
2022-09-26T13:57:40.088Z,88.31
2022-09-26T13:59:59.702Z,88.25
2022-09-26T14:02:37.664Z,88.35
2022-09-26T14:04:52.039Z,88.49
2022-09-26T14:07:36.810Z,88.46
2022-09-26T14:10:08.741Z,88.55
2022-09-26T14:12:34.370Z,88.35
2022-09-26T14:14:54.082Z,88.50
2022-09-26T14:17:28.799Z,88.43
2022-09-26T14:19:46.173Z,88.65
2022-09-26T14:22:09.893Z,88.66
2022-09-26T14:24:44.228Z,88.57
2022-09-26T14:27:06.966Z,88.70
2022-09-26T14:29:28.111Z,88.82
2022-09-26T14:31:44.262Z,88.83
2022-09-26T14:34:14.806Z,88.99
2022-09-26T14:36:38.439Z,89.03
2022-09-26T14:38:56.026Z,89.09
2022-09-26T14:41:10.032Z,89.24
2022-09-26T14:43:26.946Z,89.33
2022-09-26T14:45:52.604Z,89.32
2022-09-26T14:48:17.113Z,89.44
2022-09-26T14:50:36.533Z,89.57
2022-09-26T14:52:57.613Z,89.58
2022-09-26T14:55:12.020Z,89.66
2022-09-26T14:57:32.833Z,89.58
2022-09-26T14:59:49.515Z,89.65
2022-09-26T15:02:25.547Z,89.65
2022-09-26T15:04:39.833Z,89.78
2022-09-26T15:06:54.973Z,89.89
2022-09-26T15:09:15.622Z,89.72
2022-09-26T15:11:41.242Z,89.64
2022-09-26T15:13:56.544Z,89.64
2022-09-26T15:16:33.635Z,89.62
2022-09-26T15:18:49.471Z,89.50
2022-09-26T15:21:07.408Z,89.70
2022-09-26T15:23:32.299Z,89.86
2022-09-26T15:25:45.930Z,89.91
2022-09-26T15:28:00.546Z,90.11
2022-09-26T15:30:23.753Z,90.02
2022-09-26T15:32:38.136Z,89.94
2022-09-26T15:34:52.287Z,90.13
2022-09-26T15:37:12.416Z,90.23
2022-09-26T15:39:45.681Z,90.23
2022-09-26T15:42:14.915Z,90.01
2022-09-26T15:44:30.316Z,90.19
2022-09-26T15:46:44.083Z,90.26
2022-09-26T15:48:58.694Z,90.26
2022-09-26T15:51:19.384Z,90.54
2022-09-26T15:53:38.444Z,90.71
2022-09-26T15:55:57.341Z,90.41
2022-09-26T15:58:16.580Z,90.32
2022-09-26T16:00:33.433Z,90.16
2022-09-26T16:02:47.809Z,90.20
2022-09-26T16:05:02.192Z,90.36
2022-09-26T16:07:23.935Z,90.49
2022-09-26T16:09:44.248Z,90.12
2022-09-26T16:12:01.673Z,90.20
2022-09-26T16:14:27.959Z,90.22
2022-09-26T16:16:41.400Z,90.49
2022-09-26T16:19:01.810Z,90.72
2022-09-26T16:21:26.982Z,90.85
2022-09-26T16:23:51.556Z,90.83
2022-09-26T16:26:06.230Z,91.07
2022-09-26T16:28:49.304Z,90.97
2022-09-26T16:31:12.288Z,90.88
2022-09-26T16:33:35.735Z,90.65
2022-09-26T16:35:52.765Z,90.72
2022-09-26T16:38:08.553Z,90.69
2022-09-26T16:40:23.659Z,90.93
2022-09-26T16:42:37.991Z,91.03
2022-09-26T16:44:57.346Z,90.90
2022-09-26T16:47:31.934Z,90.70
2022-09-26T16:49:50.663Z,91.02
2022-09-26T16:52:28.072Z,91.24
2022-09-26T16:54:41.508Z,91.14
2022-09-26T16:56:55.769Z,91.21
2022-09-26T16:59:17.784Z,90.97
2022-09-26T17:01:47.816Z,90.62
2022-09-26T17:04:01.635Z,90.27
2022-09-26T17:06:16.349Z,90.24
2022-09-26T17:08:30.269Z,90.56
2022-09-26T17:10:45.177Z,90.54
2022-09-26T17:13:03.699Z,90.75
2022-09-26T17:15:24.629Z,90.54
2022-09-26T17:17:39.600Z,90.38
2022-09-26T17:19:59.392Z,90.39
2022-09-26T17:22:18.814Z,90.41
2022-09-26T17:24:34.278Z,90.04
2022-09-26T17:26:52.411Z,90.47
2022-09-26T17:29:08.364Z,90.66
2022-09-26T17:31:23.329Z,90.14
2022-09-26T17:33:37.779Z,89.97
2022-09-26T17:35:51.386Z,89.90
2022-09-26T17:38:04.887Z,89.64
2022-09-26T17:40:25.356Z,88.39
2022-09-26T17:42:38.677Z,87.80
2022-09-26T17:44:52.243Z,88.28
2022-09-26T17:47:06.227Z,88.12
2022-09-26T17:49:23.956Z,87.93
2022-09-26T17:51:37.950Z,88.22
2022-09-26T17:53:53.531Z,88.40
2022-09-26T17:56:07.738Z,87.26
2022-09-26T17:58:21.452Z,86.63
2022-09-26T18:00:44.818Z,87.46
2022-09-26T18:03:05.058Z,86.97
2022-09-26T18:05:23.884Z,86.73
2022-09-26T18:07:41.753Z,87.28
2022-09-26T18:09:55.688Z,87.74
2022-09-26T18:12:13.528Z,87.35
2022-09-26T18:14:26.751Z,86.05
2022-09-26T18:16:40.150Z,85.77
2022-09-26T18:18:53.871Z,86.38
2022-09-26T18:21:07.212Z,87.03
2022-09-26T18:23:24.722Z,87.49
2022-09-26T18:25:40.301Z,87.59
2022-09-26T18:27:55.337Z,87.31
2022-09-26T18:30:10.262Z,87.31
2022-09-26T18:32:29.298Z,86.21
2022-09-26T18:34:42.609Z,86.49
2022-09-26T18:36:58.245Z,86.57
2022-09-26T18:39:11.692Z,86.05
2022-09-26T18:41:27.785Z,85.76
2022-09-26T18:43:43.565Z,84.61
2022-09-26T18:45:58.785Z,83.28
2022-09-26T18:48:16.381Z,82.47
2022-09-26T18:50:36.127Z,82.24
2022-09-26T18:52:49.472Z,83.09
2022-09-26T18:55:18.924Z,83.67
2022-09-26T18:57:48.674Z,84.18
2022-09-26T19:00:02.293Z,83.40
2022-09-26T19:02:25.032Z,83.84
2022-09-26T19:04:38.631Z,83.44
2022-09-26T19:07:01.115Z,82.89
2022-09-26T19:09:16.272Z,82.81
2022-09-26T19:11:30.442Z,82.67
2022-09-26T19:13:43.683Z,82.42
2022-09-26T19:15:57.025Z,82.97
2022-09-26T19:18:11.126Z,83.28
2022-09-26T19:20:24.467Z,82.98
2022-09-26T19:22:37.911Z,82.52
2022-09-26T19:24:53.796Z,82.00
2022-09-26T19:27:09.372Z,82.24
2022-09-26T19:29:31.896Z,82.29
2022-09-26T19:31:45.693Z,82.12
2022-09-26T19:34:00.105Z,82.48
2022-09-26T19:36:16.047Z,82.34
2022-09-26T19:38:30.360Z,82.48
2022-09-26T19:40:48.361Z,82.28
2022-09-26T19:43:02.216Z,82.64
2022-09-26T19:45:16.957Z,83.14
2022-09-26T19:47:31.716Z,83.46
2022-09-26T19:49:45.041Z,83.16
2022-09-26T19:51:58.380Z,83.05
2022-09-26T19:54:13.739Z,83.11
2022-09-26T19:56:27.638Z,82.90
2022-09-26T19:58:41.268Z,82.84
2022-09-26T20:00:57.251Z,82.06
2022-09-26T20:03:12.732Z,82.52
2022-09-26T20:05:28.113Z,82.56
2022-09-26T20:07:41.347Z,82.62
2022-09-26T20:09:56.017Z,82.77
2022-09-26T20:12:09.631Z,82.63
2022-09-26T20:14:28.694Z,82.47
2022-09-26T20:16:45.115Z,81.90
2022-09-26T20:18:58.836Z,81.07
2022-09-26T20:21:14.428Z,81.33
2022-09-26T20:23:29.613Z,79.77
2022-09-26T20:25:43.021Z,80.17
2022-09-26T20:27:56.362Z,81.03
2022-09-26T20:30:30.373Z,81.37
2022-09-26T20:32:44.035Z,80.82
2022-09-26T20:35:00.375Z,80.39
2022-09-26T20:37:16.153Z,80.36
2022-09-26T20:39:30.692Z,80.40
2022-09-26T20:41:45.666Z,79.91
2022-09-26T20:44:04.869Z,80.24
2022-09-26T20:46:19.326Z,80.83
2022-09-26T20:48:35.656Z,80.53
2022-09-26T20:50:49.725Z,80.54
2022-09-26T20:53:02.950Z,80.37
2022-09-26T20:55:20.785Z,80.23
2022-09-26T20:57:34.059Z,80.63
2022-09-26T20:59:47.349Z,80.69
2022-09-26T21:02:01.678Z,79.92
2022-09-26T21:04:20.154Z,80.01
2022-09-26T21:06:37.522Z,79.87
2022-09-26T21:08:50.980Z,79.83
2022-09-26T21:11:04.341Z,79.60
2022-09-26T21:13:18.083Z,79.97
2022-09-26T21:15:33.055Z,79.56
2022-09-26T21:17:47.018Z,79.28
2022-09-26T21:20:00.351Z,79.52
2022-09-26T21:22:38.076Z,79.91
2022-09-26T21:24:52.124Z,79.80
2022-09-26T21:27:05.375Z,79.77
2022-09-26T21:29:21.532Z,79.40
2022-09-26T21:31:36.656Z,79.73
2022-09-26T21:33:50.038Z,79.98
2022-09-26T21:36:04.064Z,79.61
2022-09-26T21:38:17.504Z,79.71
2022-09-26T21:40:35.032Z,79.54
2022-09-26T21:42:51.669Z,79.90
2022-09-26T21:45:09.190Z,79.99
2022-09-26T21:47:23.154Z,79.96
2022-09-26T21:49:36.479Z,79.80
2022-09-26T21:51:53.135Z,79.60
2022-09-26T21:54:10.313Z,79.74
2022-09-26T21:56:27.381Z,79.71
2022-09-26T21:58:44.507Z,79.33
2022-09-26T22:00:58.888Z,78.60
2022-09-26T22:03:12.379Z,78.91
2022-09-26T22:05:25.640Z,79.01
2022-09-26T22:07:38.956Z,79.21
2022-09-26T22:09:52.565Z,79.38
2022-09-26T22:12:06.068Z,79.54
2022-09-26T22:14:19.541Z,80.05
2022-09-26T22:16:32.880Z,80.03
2022-09-26T22:18:46.526Z,79.74
2022-09-26T22:21:06.056Z,80.25
2022-09-26T22:23:19.475Z,80.00
2022-09-26T22:25:32.984Z,79.75
2022-09-26T22:27:46.294Z,79.76
2022-09-26T22:29:59.699Z,79.62
2022-09-26T22:32:13.137Z,79.66
2022-09-26T22:34:27.412Z,80.01
2022-09-26T22:36:40.986Z,80.32
2022-09-26T22:38:54.541Z,80.25
2022-09-26T22:41:09.449Z,80.01
2022-09-26T22:43:22.673Z,80.21
2022-09-26T22:45:36.578Z,80.29
2022-09-26T22:47:49.913Z,80.51
2022-09-26T22:50:03.312Z,80.86
2022-09-26T22:52:16.615Z,80.46
2022-09-26T22:54:30.042Z,80.56
2022-09-26T22:56:43.415Z,80.60
2022-09-26T22:58:57.414Z,80.60
2022-09-26T23:01:12.787Z,80.54
2022-09-26T23:03:26.406Z,80.53
2022-09-26T23:05:40.870Z,80.71
2022-09-26T23:07:56.081Z,80.93
2022-09-26T23:10:09.577Z,80.79
2022-09-26T23:12:22.949Z,80.74
2022-09-26T23:14:36.207Z,80.77
2022-09-26T23:16:49.608Z,80.85
2022-09-26T23:19:03.673Z,81.09
2022-09-26T23:21:18.246Z,81.42
2022-09-26T23:23:31.569Z,81.49
2022-09-26T23:25:51.451Z,81.67
2022-09-26T23:28:04.869Z,81.41
2022-09-26T23:30:19.358Z,81.71
2022-09-26T23:32:32.602Z,81.98
2022-09-26T23:34:45.819Z,81.95
2022-09-26T23:36:59.647Z,82.29
2022-09-26T23:39:13.030Z,82.28
2022-09-26T23:41:26.360Z,82.26
2022-09-26T23:43:39.974Z,82.54
2022-09-26T23:45:53.387Z,82.54
2022-09-26T23:48:07.063Z,82.56
2022-09-26T23:50:20.383Z,82.45
2022-09-26T23:52:33.505Z,82.35
2022-09-26T23:54:46.887Z,82.20
2022-09-26T23:57:00.137Z,82.20
2022-09-26T23:59:13.510Z,82.39
